Time;durP1;ratioP1;P1;durP2;ratioP2;P2;SDS_P1;SDS_P2;PMS_P1;PMS_P2;Temp;Humidity;BMP_temperature;BMP_pressure;BME280_temperature;BME280_humidity;BME280_pressure;Samples;Min_cycle;Max_cycle;Signal;HPM_P1;HPM_P2
2023/10/30 00:01:27;;;;;;;7.80;1.97;;;;;;;10.01;100.00;99812.69;5090277;28;20024;-35
2023/10/30 00:03:52;;;;;;;7.90;1.70;;;;;;;10.00;100.00;99801.06;5089718;28;20289;-35
2023/10/30 00:06:18;;;;;;;11.33;2.43;;;;;;;9.95;100.00;99803.69;5090771;28;20031;-35
2023/10/30 00:08:43;;;;;;;6.63;1.93;;;;;;;9.92;100.00;99808.78;5080983;28;20056;-34
2023/10/30 00:11:08;;;;;;;8.53;2.13;;;;;;;10.01;100.00;99818.91;5076908;28;20050;-35
2023/10/30 00:13:34;;;;;;;6.47;2.08;;;;;;;10.04;100.00;99818.38;5076525;28;20026;-35
2023/10/30 00:15:59;;;;;;;6.57;1.90;;;;;;;10.09;100.00;99816.81;5076527;28;20031;-35
2023/10/30 00:18:25;;;;;;;8.47;2.10;;;;;;;10.14;100.00;99827.66;5075229;28;20303;-35
2023/10/30 00:20:50;;;;;;;10.53;2.40;;;;;;;10.16;100.00;99833.66;5076964;28;20020;-35
2023/10/30 00:23:15;;;;;;;9.60;2.10;;;;;;;10.16;100.00;99833.66;5076153;28;20270;-35
2023/10/30 00:25:41;;;;;;;9.70;2.35;;;;;;;10.08;100.00;99832.19;5075795;28;20020;-35
2023/10/30 00:28:06;;;;;;;8.80;2.13;;;;;;;10.16;100.00;99847.16;5076024;28;20035;-35
2023/10/30 00:30:31;;;;;;;7.97;2.30;;;;;;;10.15;100.00;99856.31;5076282;28;20073;-35
2023/10/30 00:32:57;;;;;;;6.47;1.80;;;;;;;10.06;100.00;99840.56;5075631;28;20029;-35
2023/10/30 00:35:22;;;;;;;9.20;2.13;;;;;;;10.08;100.00;99851.09;5076160;28;20032;-35
2023/10/30 00:37:48;;;;;;;6.33;1.67;;;;;;;10.09;100.00;99857.31;5075502;28;20319;-35
2023/10/30 00:40:13;;;;;;;10.90;2.90;;;;;;;10.09;100.00;99855.44;5076112;28;20048;-35
2023/10/30 00:42:39;;;;;;;8.55;2.20;;;;;;;10.12;100.00;99862.22;5075731;28;20032;-35
2023/10/30 00:45:05;;;;;;;11.73;1.90;;;;;;;10.12;100.00;99862.22;5076537;28;20039;-35
2023/10/30 00:47:31;;;;;;;6.63;1.65;;;;;;;10.08;100.00;99861.91;5075345;28;20111;-35
2023/10/30 00:49:56;;;;;;;7.25;1.90;;;;;;;10.10;100.00;99872.44;5075634;28;20502;-35
2023/10/30 00:52:22;;;;;;;8.93;2.35;;;;;;;9.96;100.00;99851.25;5075515;28;20016;-35
2023/10/30 00:54:47;;;;;;;6.53;1.83;;;;;;;10.11;100.00;99874.09;5076059;28;20033;-35
2023/10/30 00:57:12;;;;;;;8.38;2.15;;;;;;;10.09;100.00;99884.34;5075448;28;20596;-35
2023/10/30 00:59:38;;;;;;;5.93;1.97;;;;;;;10.00;100.00;99865.88;5075436;28;20024;-35
2023/10/30 01:02:03;;;;;;;6.50;1.93;;;;;;;10.06;100.00;99891.06;5075385;28;20021;-35
2023/10/30 01:04:28;;;;;;;10.23;2.33;;;;;;;10.03;100.00;99892.38;5075618;28;20016;-35
2023/10/30 01:06:54;;;;;;;8.10;2.13;;;;;;;10.06;100.00;99897.28;5075443;28;20026;-35
2023/10/30 01:09:19;;;;;;;7.38;2.05;;;;;;;10.01;100.00;99902.63;5075741;28;20069;-35
2023/10/30 01:11:45;;;;;;;7.05;2.00;;;;;;;10.05;100.00;99917.28;5075483;28;20338;-35
2023/10/30 01:14:10;;;;;;;7.22;2.03;;;;;;;10.03;100.00;99908.56;5074859;28;20452;-35
2023/10/30 01:16:36;;;;;;;9.50;2.42;;;;;;;9.99;100.00;99904.75;5075589;28;20031;-35
2023/10/30 01:19:01;;;;;;;10.68;2.65;;;;;;;10.00;100.00;99903.69;5075335;28;20096;-35
2023/10/30 01:21:26;;;;;;;9.73;2.25;;;;;;;10.06;100.00;99916.19;5074744;28;20047;-35
2023/10/30 01:23:52;;;;;;;7.57;2.17;;;;;;;10.05;100.00;99911.03;5074687;28;20448;-35
2023/10/30 01:26:17;;;;;;;7.53;1.87;;;;;;;10.06;100.00;99916.19;5075447;28;20395;-35
2023/10/30 01:28:42;;;;;;;9.20;1.87;;;;;;;10.06;100.00;99924.28;5074543;28;20027;-35
2023/10/30 01:31:08;;;;;;;9.70;2.47;;;;;;;10.04;100.00;99910.19;5075632;28;20035;-35
2023/10/30 01:33:33;;;;;;;6.20;1.65;;;;;;;10.06;100.00;99918.91;5075244;28;20448;-35
2023/10/30 01:35:59;;;;;;;5.77;1.53;;;;;;;10.01;100.00;99910.72;5073349;28;20384;-35
2023/10/30 01:38:24;;;;;;;13.93;2.75;;;;;;;10.02;100.00;99904.25;5075391;28;20020;-35
2023/10/30 01:40:51;;;;;;;8.20;2.17;;;;;;;10.08;100.00;99910.53;5074854;28;20402;-35
2023/10/30 01:43:28;;;;;;;7.88;1.75;;;;;;;10.08;100.00;99915.94;5074466;28;20023;-35
2023/10/30 01:45:53;;;;;;;8.45;2.10;;;;;;;10.02;100.00;99906.94;5074758;28;20083;-35
2023/10/30 01:48:19;;;;;;;8.60;2.30;;;;;;;10.06;100.00;99907.28;5074178;28;20021;-35
2023/10/30 01:50:48;;;;;;;9.88;2.50;;;;;;;10.06;100.00;99913.50;5074752;28;20634;-35
2023/10/30 01:53:14;;;;;;;7.85;1.98;;;;;;;10.03;100.00;99915.88;5074040;28;20039;-35
2023/10/30 01:55:41;;;;;;;6.68;1.77;;;;;;;10.04;100.00;99910.19;5074853;28;20364;-35
2023/10/30 01:58:07;;;;;;;9.50;2.22;;;;;;;10.05;100.00;99914.56;5073916;28;20491;-35
2023/10/30 02:00:33;;;;;;;8.30;2.17;;;;;;;10.07;100.00;99917.81;5074840;28;20036;-35
2023/10/30 02:02:59;;;;;;;9.43;1.92;;;;;;;10.09;100.00;99916.75;5074707;28;20024;-35
2023/10/30 02:05:25;;;;;;;6.25;1.92;;;;;;;10.07;100.00;99917.81;5073810;28;20028;-35
2023/10/30 02:07:50;;;;;;;5.28;1.73;;;;;;;10.07;100.00;99920.53;5074086;28;20040;-35
2023/10/30 02:10:16;;;;;;;9.43;2.22;;;;;;;10.12;100.00;99927.06;5073830;28;20115;-35
2023/10/30 02:12:42;;;;;;;7.73;1.93;;;;;;;10.09;100.00;99927.56;5074055;28;20020;-35
2023/10/30 02:15:08;;;;;;;6.07;1.80;;;;;;;10.09;100.00;99928.38;5074272;28;20103;-35
2023/10/30 02:17:34;;;;;;;8.75;1.83;;;;;;;10.08;100.00;99918.63;5073526;28;20439;-35
2023/10/30 02:20:00;;;;;;;7.50;2.38;;;;;;;10.03;100.00;99916.69;5074730;28;20017;-35
2023/10/30 02:22:25;;;;;;;7.55;2.05;;;;;;;10.07;100.00;99919.72;5073846;28;20025;-35
2023/10/30 02:24:50;;;;;;;7.90;2.20;;;;;;;10.12;100.00;99921.66;5074393;28;20356;-35
2023/10/30 02:27:17;;;;;;;8.97;2.20;;;;;;;10.07;100.00;99920.53;5073830;28;20271;-35
2023/10/30 02:29:42;;;;;;;6.47;1.75;;;;;;;10.05;100.00;99901.06;5073577;28;20013;-35
2023/10/30 02:32:08;;;;;;;9.20;1.98;;;;;;;10.13;100.00;99916.00;5073796;28;20099;-35
2023/10/30 02:34:33;;;;;;;9.77;2.07;;;;;;;10.15;100.00;99918.44;5074292;28;20095;-35
2023/10/30 02:37:00;;;;;;;9.30;1.73;;;;;;;10.17;100.00;99913.63;5073922;28;20016;-35
2023/10/30 02:39:32;;;;;;;8.60;1.77;;;;;;;10.17;100.00;99913.63;5073520;28;20039;-35
2023/10/30 02:41:57;;;;;;;8.20;2.20;;;;;;;10.13;100.00;99901.69;5074148;28;20025;-35
2023/10/30 02:44:23;;;;;;;8.77;1.67;;;;;;;10.18;100.00;99904.44;5073544;28;20024;-35
2023/10/30 02:46:48;;;;;;;8.65;1.70;;;;;;;10.20;100.00;99905.84;5073832;28;20029;-35
2023/10/30 02:49:14;;;;;;;8.57;2.00;;;;;;;10.20;100.00;99905.84;5073794;28;20102;-35
2023/10/30 02:51:39;;;;;;;11.43;2.00;;;;;;;10.19;100.00;99906.06;5073844;28;20488;-35
2023/10/30 02:54:05;;;;;;;7.57;1.60;;;;;;;10.16;100.00;99902.00;5073238;28;20024;-35
2023/10/30 02:56:30;;;;;;;6.00;1.40;;;;;;;10.18;100.00;99905.25;5073644;28;20620;-35
2023/10/30 02:58:55;;;;;;;6.53;1.97;;;;;;;10.19;100.00;99914.19;5073796;28;20440;-35
2023/10/30 03:01:21;;;;;;;9.93;2.40;;;;;;;10.05;100.00;99894.81;5073982;28;20021;-35
2023/10/30 03:03:46;;;;;;;14.57;3.10;;;;;;;10.03;100.00;99889.66;5073382;28;20056;-35
2023/10/30 03:06:11;;;;;;;7.00;1.77;;;;;;;10.18;100.00;99904.44;5072985;28;20262;-34
2023/10/30 03:08:37;;;;;;;8.37;2.00;;;;;;;10.21;100.00;99917.47;5073681;28;20455;-35
2023/10/30 03:11:03;;;;;;;8.57;1.77;;;;;;;10.17;100.00;99919.03;5074224;28;20403;-35
2023/10/30 03:13:28;;;;;;;7.72;1.58;;;;;;;10.10;100.00;99902.16;5073019;28;20267;-35
2023/10/30 03:15:54;;;;;;;7.30;1.90;;;;;;;10.12;100.00;99906.25;5073326;28;20052;-35
2023/10/30 03:18:19;;;;;;;9.83;1.93;;;;;;;10.09;100.00;99909.47;5073613;28;20086;-35
2023/10/30 03:20:44;;;;;;;6.87;1.73;;;;;;;10.16;100.00;99933.59;5072980;28;20078;-35
2023/10/30 03:23:10;;;;;;;9.57;2.03;;;;;;;10.13;100.00;99928.69;5073242;28;20036;-35
2023/10/30 03:25:36;;;;;;;6.07;1.75;;;;;;;10.02;100.00;99912.34;5073482;28;20031;-35
2023/10/30 03:28:02;;;;;;;7.23;2.20;;;;;;;10.15;100.00;99943.59;5072940;28;20526;-35
2023/10/30 03:30:27;;;;;;;;;;;;;;;10.20;100.00;99942.81;5073554;28;20055;-35
2023/10/30 03:32:52;;;;;;;9.35;2.50;;;;;;;10.13;100.00;99934.91;5073111;28;20356;-35
2023/10/30 03:35:18;;;;;;;7.63;2.10;;;;;;;10.14;100.00;99928.44;5073638;28;20032;-35
2023/10/30 03:37:43;;;;;;;10.43;2.25;;;;;;;10.12;100.00;99919.78;5072956;28;20304;-35
2023/10/30 03:40:10;;;;;;;7.57;1.60;;;;;;;10.14;100.00;99925.72;5073192;28;20020;-35
2023/10/30 03:42:35;;;;;;;8.32;2.10;;;;;;;10.14;100.00;99924.91;5072752;28;20024;-35
2023/10/30 03:45:00;;;;;;;8.10;1.47;;;;;;;10.07;100.00;99919.72;5077197;28;20025;-35
2023/10/30 03:47:26;;;;;;;7.82;1.38;;;;;;;10.10;100.00;99918.38;5076779;28;20118;-35
2023/10/30 03:49:51;;;;;;;7.87;2.10;;;;;;;10.04;100.00;99918.31;5077568;28;20028;-35
2023/10/30 03:52:16;;;;;;;7.67;1.80;;;;;;;10.03;100.00;99911.28;5077000;28;20024;-35
2023/10/30 03:54:42;;;;;;;7.23;1.67;;;;;;;10.09;100.00;99916.75;5076416;28;20028;-35
2023/10/30 03:57:10;;;;;;;7.60;2.07;;;;;;;10.06;100.00;99924.28;5076950;28;20296;-35
2023/10/30 03:59:35;;;;;;;12.52;2.25;;;;;;;9.99;100.00;99923.66;5076876;28;20082;-35
2023/10/30 04:02:01;;;;;;;8.07;1.87;;;;;;;10.01;100.00;99928.81;5075394;28;20024;-35
2023/10/30 04:04:26;;;;;;;6.80;1.83;;;;;;;10.00;100.00;99932.56;5076471;28;20024;-35
2023/10/30 04:06:52;;;;;;;6.73;1.73;;;;;;;9.96;100.00;99924.16;5076509;28;20033;-35
2023/10/30 04:09:17;;;;;;;8.02;1.98;;;;;;;9.91;100.00;99909.78;5076309;28;20024;-35
2023/10/30 04:11:46;;;;;;;9.50;1.87;;;;;;;9.98;100.00;99918.50;5076604;28;20082;-35
2023/10/30 04:14:12;;;;;;;9.57;1.90;;;;;;;9.85;100.00;99908.88;5076447;28;20016;-35
2023/10/30 04:16:37;;;;;;;10.40;2.28;;;;;;;9.86;100.00;99912.38;5075917;28;20023;-35
2023/10/30 04:19:02;;;;;;;8.83;2.07;;;;;;;9.87;100.00;99917.56;5076533;28;20161;-35
2023/10/30 04:21:28;;;;;;;6.80;1.58;;;;;;;9.89;100.00;99918.09;5076417;28;20092;-34
2023/10/30 04:23:54;;;;;;;6.75;2.00;;;;;;;9.82;100.00;99916.66;5075738;28;20361;-34
2023/10/30 04:26:19;;;;;;;8.57;2.58;;;;;;;9.86;100.00;99921.31;5076112;28;20032;-35
2023/10/30 04:28:45;;;;;;;9.82;1.75;;;;;;;9.83;100.00;99919.09;5075999;28;20013;-35
2023/10/30 04:31:10;;;;;;;7.13;1.83;;;;;;;9.85;100.00;99918.84;5076536;28;20051;-35
2023/10/30 04:33:36;;;;;;;8.00;2.20;;;;;;;9.86;100.00;99917.78;5075624;28;20020;-35
2023/10/30 04:36:02;;;;;;;8.77;2.03;;;;;;;9.82;100.00;99916.66;5075845;28;20032;-35
2023/10/30 04:38:30;;;;;;;8.18;2.42;;;;;;;9.84;100.00;99925.31;5075766;28;20031;-34
2023/10/30 04:40:56;;;;;;;5.85;1.40;;;;;;;9.74;100.00;99907.09;5076096;28;20378;-35
2023/10/30 04:43:22;;;;;;;9.82;1.90;;;;;;;9.79;100.00;99934.97;5075454;28;20119;-35
2023/10/30 04:45:47;;;;;;;9.27;2.23;;;;;;;9.80;100.00;99925.00;5075461;28;20504;-35
2023/10/30 04:48:13;;;;;;;6.43;1.55;;;;;;;9.75;100.00;99916.81;5075923;28;20063;-34
2023/10/30 04:50:38;;;;;;;8.17;1.70;;;;;;;9.80;100.00;99933.91;5076190;28;20028;-35
2023/10/30 04:53:03;;;;;;;9.27;2.00;;;;;;;9.83;100.00;99931.78;5075841;28;20141;-35
2023/10/30 04:55:29;;;;;;;7.27;2.20;;;;;;;9.80;100.00;99935.78;5075260;28;20023;-35
2023/10/30 04:57:54;;;;;;;8.03;1.63;;;;;;;9.78;100.00;99935.25;5075905;28;20294;-35
2023/10/30 05:00:19;;;;;;;6.90;1.50;;;;;;;9.78;100.00;99930.66;5076003;28;20020;-35
2023/10/30 05:02:48;;;;;;;7.50;1.75;;;;;;;9.75;100.00;99933.03;5075616;28;20103;-34
2023/10/30 05:05:14;;;;;;;6.82;1.92;;;;;;;9.68;100.00;99908.09;5075849;28;20500;-35
2023/10/30 05:07:40;;;;;;;9.60;2.03;;;;;;;9.78;100.00;99908.25;5075028;28;20028;-35
2023/10/30 05:10:05;;;;;;;8.03;1.60;;;;;;;9.75;100.00;99914.13;5075824;28;20372;-35
2023/10/30 05:12:31;;;;;;;8.40;1.73;;;;;;;9.75;100.00;99924.91;5074842;28;20259;-35
2023/10/30 05:14:58;;;;;;;9.27;2.23;;;;;;;9.73;100.00;99917.06;5075397;28;20091;-34
2023/10/30 05:17:24;;;;;;;10.25;2.35;;;;;;;9.65;100.00;99905.88;5074895;28;20108;-35
2023/10/30 05:19:49;;;;;;;6.07;1.67;;;;;;;9.73;100.00;99918.97;5075388;28;20120;-35
2023/10/30 05:22:15;;;;;;;10.30;1.75;;;;;;;9.70;100.00;99920.25;5074984;28;20027;-35
2023/10/30 05:24:40;;;;;;;11.20;1.93;;;;;;;9.68;100.00;99932.38;5074907;28;20028;-35
2023/10/30 05:27:06;;;;;;;9.45;2.10;;;;;;;9.66;100.00;99907.50;5075444;28;20043;-35
2023/10/30 05:29:31;;;;;;;7.13;2.00;;;;;;;9.67;100.00;99915.38;5074613;28;20078;-35
2023/10/30 05:31:57;;;;;;;13.40;2.55;;;;;;;9.69;100.00;99917.81;5074812;28;20455;-35
2023/10/30 05:34:26;;;;;;;;;;;;;;;9.69;100.00;99913.22;5075491;28;20029;-35
2023/10/30 05:36:51;;;;;;;7.95;2.17;;;;;;;9.64;100.00;99906.94;5074864;28;19970;-35
2023/10/30 05:39:17;;;;;;;6.60;1.60;;;;;;;9.68;100.00;99905.38;5074731;28;20044;-35
2023/10/30 05:41:42;;;;;;;6.90;2.50;;;;;;;9.66;100.00;99907.50;5074716;28;20030;-35
2023/10/30 05:44:07;;;;;;;7.80;2.17;;;;;;;9.66;100.00;99919.16;5074843;28;20344;-35
2023/10/30 05:46:33;;;;;;;11.10;1.70;;;;;;;9.63;100.00;99911.53;5074273;28;20063;-35
2023/10/30 05:48:58;;;;;;;10.40;2.03;;;;;;;9.58;100.00;99914.16;5073717;28;20024;-34
2023/10/30 05:51:23;;;;;;;8.02;1.63;;;;;;;9.61;100.00;99926.31;5074749;28;20024;-35
2023/10/30 05:53:50;;;;;;;10.20;2.30;;;;;;;9.45;100.00;99901.81;5074042;28;20080;-34
2023/10/30 05:56:16;;;;;;;5.97;1.88;;;;;;;9.55;100.00;99911.94;5074294;28;20286;-35
2023/10/30 05:58:41;;;;;;;8.98;1.80;;;;;;;9.52;100.00;99907.06;5074895;28;20109;-35
2023/10/30 06:01:06;;;;;;;5.67;1.70;;;;;;;9.53;100.00;99912.19;5074609;28;20016;-35
2023/10/30 06:03:32;;;;;;;5.77;1.50;;;;;;;9.54;100.00;99900.31;5074148;28;20048;-35
2023/10/30 06:05:57;;;;;;;7.67;1.67;;;;;;;9.53;100.00;99912.19;5073740;28;20082;-35
2023/10/30 06:08:23;;;;;;;10.30;2.37;;;;;;;9.51;100.00;99917.00;5074158;28;20488;-34
2023/10/30 06:10:49;;;;;;;7.40;1.70;;;;;;;9.49;100.00;99924.53;5074893;28;20061;-34
2023/10/30 06:13:15;;;;;;;7.07;1.55;;;;;;;9.50;100.00;99920.78;5074567;28;20025;-35
2023/10/30 06:15:41;;;;;;;7.75;2.00;;;;;;;9.38;100.00;99909.25;5074296;28;20032;-34
2023/10/30 06:18:06;;;;;;;6.60;1.50;;;;;;;9.36;100.00;99908.66;5073539;28;20467;-35
2023/10/30 06:20:31;;;;;;;7.60;2.30;;;;;;;9.36;100.00;99924.88;5074791;28;20349;-35
2023/10/30 06:22:57;;;;;;;9.45;1.95;;;;;;;9.32;100.00;99926.44;5074398;28;20024;-35
2023/10/30 06:25:25;;;;;;;8.63;2.45;;;;;;;9.25;100.00;99925.75;5074163;28;20021;-35
2023/10/30 06:27:51;;;;;;;8.07;2.13;;;;;;;9.29;100.00;99945.81;5074037;28;20024;-35
2023/10/30 06:30:17;;;;;;;8.55;2.60;;;;;;;9.26;100.00;99946.28;5074323;28;20365;-34
2023/10/30 06:32:43;;;;;;;8.57;2.05;;;;;;;9.23;100.00;99955.69;5073957;28;20027;-34
2023/10/30 06:35:09;;;;;;;5.65;1.52;;;;;;;9.12;100.00;99944.94;5073795;28;20031;-35
2023/10/30 06:37:35;;;;;;;;;;;;;;;9.24;100.00;99961.91;5074017;28;20341;-35
2023/10/30 06:40:00;;;;;;;7.25;2.00;;;;;;;9.21;100.00;99957.00;5073653;28;19995;-36
2023/10/30 06:42:25;;;;;;;10.23;2.17;;;;;;;9.13;100.00;99946.63;5073873;28;20070;-35
2023/10/30 06:44:51;;;;;;;8.27;1.90;;;;;;;9.12;100.00;99955.75;5073895;28;20028;-34
2023/10/30 06:47:17;;;;;;;;;;;;;;;9.22;100.00;99966.72;5073972;28;20032;-35
2023/10/30 06:49:43;;;;;;;8.93;1.90;;;;;;;9.17;100.00;99970.13;5073616;28;19908;-35
2023/10/30 06:52:08;;;;;;;5.77;1.80;;;;;;;9.08;100.00;99947.34;5072652;28;20055;-35
2023/10/30 06:54:33;;;;;;;9.63;2.20;;;;;;;9.21;100.00;99959.69;5073471;28;20263;-35
2023/10/30 06:56:59;;;;;;;9.07;2.00;;;;;;;9.25;100.00;99967.06;5073988;28;20045;-35
2023/10/30 06:59:24;;;;;;;6.47;1.57;;;;;;;9.26;100.00;99973.25;5074100;28;20067;-35
2023/10/30 07:01:49;;;;;;;6.30;2.10;;;;;;;9.27;100.00;99975.72;5073732;28;20031;-35
2023/10/30 07:04:15;;;;;;;9.48;2.42;;;;;;;9.28;100.00;99977.38;5073431;28;20635;-34
2023/10/30 07:06:43;;;;;;;9.05;2.22;;;;;;;9.33;100.00;99973.13;5073517;28;20051;-35
2023/10/30 07:09:09;;;;;;;7.05;1.92;;;;;;;9.35;100.00;99966.41;5073321;28;20024;-35
2023/10/30 07:11:35;;;;;;;;;;;;;;;9.42;100.00;99966.22;5074068;28;20035;-35
2023/10/30 07:14:04;;;;;;;9.07;2.10;;;;;;;9.46;100.00;99973.59;5073860;28;20315;-35
2023/10/30 07:16:30;;;;;;;6.25;1.40;;;;;;;9.49;100.00;99970.41;5072893;28;20030;-35
2023/10/30 07:18:56;;;;;;;7.05;1.83;;;;;;;9.57;100.00;99971.91;5075626;28;20360;-35
2023/10/30 07:21:21;;;;;;;8.77;2.22;;;;;;;9.61;100.00;99969.50;5077644;28;20517;-35
2023/10/30 07:23:47;;;;;;;9.27;2.10;;;;;;;9.58;100.00;99965.44;5077253;28;20028;-35
2023/10/30 07:26:12;;;;;;;8.82;1.88;;;;;;;9.69;100.00;99978.03;5076565;28;20028;-35
2023/10/30 07:28:37;;;;;;;9.02;2.13;;;;;;;9.72;100.00;99976.72;5077142;28;20081;-35
2023/10/30 07:31:03;;;;;;;9.23;2.60;;;;;;;9.76;100.00;99977.84;5077754;28;20024;-35
2023/10/30 07:33:28;;;;;;;6.90;1.90;;;;;;;9.78;100.00;99984.66;5076778;28;20792;-35
2023/10/30 07:35:54;;;;;;;7.18;1.90;;;;;;;9.82;100.00;99986.88;5077345;28;20024;-35
2023/10/30 07:38:19;;;;;;;7.10;2.10;;;;;;;9.79;100.00;99997.09;5075700;28;20469;-35
2023/10/30 07:40:45;;;;;;;9.00;1.90;;;;;;;9.85;100.00;100002.56;5077787;28;20034;-35
2023/10/30 07:43:10;;;;;;;8.63;2.00;;;;;;;9.87;100.00;100005.84;5076937;28;20017;-35
2023/10/30 07:45:40;;;;;;;7.63;2.60;;;;;;;9.83;100.00;99997.41;5076572;28;20610;-35
2023/10/30 07:48:06;;;;;;;6.30;1.70;;;;;;;9.97;100.00;100012.22;5077054;28;20031;-35
2023/10/30 07:50:32;;;;;;;11.07;2.60;;;;;;;10.00;100.00;100009.03;5076781;28;20379;-35
2023/10/30 07:52:58;;;;;;;8.35;2.20;;;;;;;10.09;100.00;100014.81;5076967;28;20032;-35
2023/10/30 07:55:24;;;;;;;11.85;3.20;;;;;;;10.12;100.00;100008.09;5076720;28;20056;-34
2023/10/30 07:57:49;;;;;;;11.63;2.30;;;;;;;10.18;100.00;100015.22;5077621;28;20072;-35
2023/10/30 08:00:15;;;;;;;9.03;2.00;;;;;;;10.23;100.00;100009.88;5076662;28;20021;-35
2023/10/30 08:02:40;;;;;;;9.55;2.00;;;;;;;10.24;100.00;100012.34;5076810;28;20024;-35
2023/10/30 08:05:07;;;;;;;9.97;2.03;;;;;;;10.20;100.00;99994.16;5077261;28;20329;-35
2023/10/30 08:07:32;;;;;;;6.97;2.00;;;;;;;10.29;100.00;100003.50;5076428;28;20270;-35
2023/10/30 08:09:57;;;;;;;7.77;1.87;;;;;;;10.35;100.00;100004.41;5077292;28;20347;-35
2023/10/30 08:12:23;;;;;;;8.25;2.20;;;;;;;10.37;100.00;100005.78;5076273;28;20060;-35
2023/10/30 08:14:48;;;;;;;9.80;2.15;;;;;;;10.44;100.00;100000.19;5077194;28;20074;-34
2023/10/30 08:17:14;;;;;;;8.45;2.08;;;;;;;10.52;100.00;100011.38;5076217;28;20016;-34
2023/10/30 08:19:39;;;;;;;9.68;3.03;;;;;;;10.57;100.00;100014.16;5076550;28;20426;-35
2023/10/30 08:22:05;;;;;;;8.53;1.80;;;;;;;10.59;100.00;100003.13;5076239;28;20372;-35
2023/10/30 08:24:30;;;;;;;10.63;2.97;;;;;;;10.67;100.00;100013.47;5076035;28;20309;-35
2023/10/30 08:26:56;;;;;;;5.65;1.83;;;;;;;10.70;100.00;100004.88;5076444;28;20086;-35
2023/10/30 08:29:21;;;;;;;10.87;2.83;;;;;;;10.67;100.00;99999.13;5075604;28;20372;-35
2023/10/30 08:31:46;;;;;;;10.67;2.90;;;;;;;10.76;100.00;100011.16;5076373;28;20090;-34
2023/10/30 08:34:12;;;;;;;8.47;2.27;;;;;;;10.75;100.00;100010.31;5075960;28;20350;-35
2023/10/30 08:36:37;;;;;;;5.40;1.40;;;;;;;10.82;100.00;100008.22;5075594;28;20024;-35
2023/10/30 08:39:03;;;;;;;6.30;1.77;;;;;;;10.90;100.00;100008.88;5075870;28;20017;-35
2023/10/30 08:41:28;;;;;;;5.43;1.95;;;;;;;10.93;100.00;100013.75;5075823;28;20051;-35
2023/10/30 08:43:53;;;;;;;8.43;1.75;;;;;;;10.95;100.00;100008.94;5076357;28;20024;-35
2023/10/30 08:46:19;;;;;;;13.82;2.97;;;;;;;10.95;100.00;99993.50;5076013;28;20050;-35
2023/10/30 08:48:44;;;;;;;6.43;2.00;;;;;;;11.04;100.00;99996.59;5075718;28;20103;-35
2023/10/30 08:51:10;;;;;;;10.65;3.00;;;;;;;11.06;100.00;99989.84;5075420;28;20020;-35
2023/10/30 08:53:35;;;;;;;6.60;1.70;;;;;;;11.03;100.00;99984.13;5075581;28;20028;-36
2023/10/30 08:56:01;;;;;;;6.93;1.52;;;;;;;11.19;100.00;100014.88;5076128;28;20024;-35
2023/10/30 08:58:26;;;;;;;7.55;2.13;;;;;;;11.27;100.00;100017.09;5076056;28;20047;-35
2023/10/30 09:00:53;;;;;;;10.47;1.93;;;;;;;11.32;100.00;100011.72;5076076;28;20020;-35
2023/10/30 09:03:19;;;;;;;9.60;2.58;;;;;;;11.41;100.00;100012.09;5076160;28;20286;-35
2023/10/30 09:05:44;;;;;;;9.23;1.75;;;;;;;11.51;100.00;100014.88;5075107;28;20413;-35
2023/10/30 09:08:10;;;;;;;9.07;2.15;;;;;;;11.58;100.00;100010.09;5075070;28;20039;-35
2023/10/30 09:10:36;;;;;;;7.65;1.77;;;;;;;11.60;100.00;100013.34;5075239;28;20032;-35
2023/10/30 09:13:01;;;;;;;6.25;2.03;;;;;;;11.63;100.00;100022.88;5075747;28;20052;-35
2023/10/30 09:15:27;;;;;;;5.25;1.77;;;;;;;11.66;100.00;100016.91;5075759;28;20064;-35
2023/10/30 09:17:52;;;;;;;8.40;2.03;;;;;;;11.68;100.00;100021.00;5075503;28;20114;-35
2023/10/30 09:20:19;;;;;;;8.45;1.90;;;;;;;11.71;100.00;100022.38;5075071;28;20039;-35
2023/10/30 09:22:44;;;;;;;;;;;;;;;11.77;100.00;100013.22;5075222;28;20028;-34
2023/10/30 09:25:09;;;;;;;7.07;1.55;;;;;;;11.78;100.00;100006.72;5075186;28;19926;-34
2023/10/30 09:27:35;;;;;;;7.38;2.00;;;;;;;11.79;100.00;100005.66;5075199;28;20031;-34
2023/10/30 09:30:00;;;;;;;8.18;2.60;;;;;;;11.80;100.00;99997.25;5074939;28;20092;-36
2023/10/30 09:32:26;;;;;;;6.93;1.55;;;;;;;11.80;100.00;99991.84;5074788;28;20039;-35
2023/10/30 09:34:51;;;;;;;10.82;1.88;;;;;;;11.88;100.00;99998.72;5075374;28;20047;-36
2023/10/30 09:37:16;;;;;;;13.27;2.60;;;;;;;11.91;100.00;99997.34;5074375;28;20020;-35
2023/10/30 09:39:42;;;;;;;4.17;1.40;;;;;;;11.92;100.00;99999.00;5075266;28;20594;-35
2023/10/30 09:42:07;;;;;;;8.38;1.88;;;;;;;11.94;100.00;100007.69;5074160;28;20020;-35
2023/10/30 09:44:34;;;;;;;6.32;1.40;;;;;;;11.98;100.00;100004.19;5074579;28;20070;-35
2023/10/30 09:47:01;;;;;;;6.28;1.60;;;;;;;11.90;100.00;99980.28;5074809;28;20124;-36
2023/10/30 09:49:28;;;;;;;6.68;1.80;;;;;;;12.03;100.00;100003.41;5074430;28;20027;-35
2023/10/30 09:51:55;;;;;;;11.32;2.65;;;;;;;12.04;100.00;100000.44;5074661;28;20467;-35
2023/10/30 09:54:21;;;;;;;5.80;1.55;;;;;;;12.04;100.00;100003.16;5074351;28;20025;-35
2023/10/30 09:56:49;;;;;;;5.60;1.48;;;;;;;12.07;100.00;99997.22;5074532;28;20044;-35
2023/10/30 09:59:16;;;;;;;8.40;1.60;;;;;;;12.09;100.00;99988.81;5075113;28;20016;-35
2023/10/30 10:01:41;;;;;;;10.90;1.98;;;;;;;12.10;100.00;99980.44;5074841;28;20047;-35
2023/10/30 10:04:07;;;;;;;8.20;1.48;;;;;;;12.16;100.00;99984.00;5074271;28;20474;-35
2023/10/30 10:06:32;;;;;;;6.57;1.38;;;;;;;12.19;100.00;99985.34;5074760;28;20032;-35
2023/10/30 10:08:58;;;;;;;5.00;1.55;;;;;;;12.18;100.00;99968.28;5074640;28;20379;-35
2023/10/30 10:11:30;;;;;;;6.20;1.38;;;;;;;12.22;100.00;99974.81;5074645;28;20445;-35
2023/10/30 10:13:56;;;;;;;5.97;1.70;;;;;;;12.22;100.00;99977.53;5074330;28;20212;-35
2023/10/30 10:16:26;;;;;;;;;;;;;;;12.26;100.00;99983.25;5074668;28;20058;-35
2023/10/30 10:18:52;;;;;;;6.68;1.50;;;;;;;12.27;100.00;99984.88;5073960;28;20245;-35
2023/10/30 10:21:17;;;;;;;7.13;1.77;;;;;;;12.20;100.00;99968.84;5074315;28;20038;-35
2023/10/30 10:23:44;;;;;;;6.53;1.47;;;;;;;12.28;100.00;99975.66;5073625;28;20255;-35
2023/10/30 10:26:14;;;;;;;5.72;1.65;;;;;;;12.22;100.00;99963.16;5073624;28;20023;-35
2023/10/30 10:28:43;;;;;;;4.93;1.40;;;;;;;12.30;100.00;99973.50;5073744;28;20027;-35
2023/10/30 10:31:08;;;;;;;7.18;1.67;;;;;;;12.33;100.00;99978.38;5074053;28;20060;-35
2023/10/30 10:33:37;;;;;;;8.25;1.80;;;;;;;12.35;100.00;99971.63;5073451;28;20112;-34
2023/10/30 10:36:04;;;;;;;7.15;1.80;;;;;;;12.24;100.00;99947.44;5074000;28;20154;-34
2023/10/30 10:38:33;;;;;;;7.70;2.35;;;;;;;12.41;100.00;99974.38;5073528;28;20031;-35
2023/10/30 10:40:59;;;;;;;5.68;1.50;;;;;;;12.46;100.00;99979.81;5073695;28;20104;-35
2023/10/30 10:43:26;;;;;;;;;;;;;;;12.55;100.00;99970.91;5074056;28;20021;-35
2023/10/30 10:45:53;;;;;;;6.40;2.00;;;;;;;12.55;100.00;99965.47;5074260;28;19904;-35
2023/10/30 10:48:19;;;;;;;5.57;1.50;;;;;;;12.63;100.00;99975.81;5073605;28;20036;-35
2023/10/30 10:50:45;;;;;;;8.23;2.00;;;;;;;12.68;100.00;99968.75;5073657;28;20028;-35
2023/10/30 10:53:12;;;;;;;9.23;1.60;;;;;;;12.68;100.00;99979.63;5074006;28;20035;-35
2023/10/30 10:55:45;;;;;;;5.68;1.45;;;;;;;12.72;100.00;99986.16;5073527;28;20024;-35
2023/10/30 10:58:17;;;;;;;6.60;1.38;;;;;;;12.71;100.00;99973.66;5073941;28;20041;-35
2023/10/30 11:00:53;;;;;;;7.20;1.60;;;;;;;12.70;100.00;99967.44;5073453;28;20452;-36
2023/10/30 11:03:21;;;;;;;7.43;1.57;;;;;;;12.70;100.00;99966.63;5073680;28;20524;-35
2023/10/30 11:05:49;;;;;;;7.25;1.58;;;;;;;12.60;100.00;99945.72;5073733;28;20315;-35
2023/10/30 11:08:20;;;;;;;7.53;1.58;;;;;;;12.69;100.00;99959.53;5073174;28;20476;-36
2023/10/30 11:11:04;;;;;;;6.32;1.35;;;;;;;12.66;100.00;99955.47;5073424;28;20078;-36
2023/10/30 11:13:47;;;;;;;4.28;1.38;;;;;;;12.64;100.00;99952.22;5073057;28;20032;-36
2023/10/30 11:17:01;;;;;;;6.13;1.42;;;;;;;12.70;100.00;99950.34;5073316;28;20066;-34
2023/10/30 11:19:32;;;;;;;4.75;1.27;;;;;;;12.65;100.00;99932.16;5051157;28;20098;-35
2023/10/30 11:21:59;;;;;;;3.47;1.38;;;;;;;12.65;100.00;99936.78;5071162;28;20038;-35